This is the latest recevied weather packets stored in our database for station/object KO6MEX-13. If no packets are shown the sender has not sent any weather packets the latest 1 day(s).
| Time | Temp. | Humidity | Pressure | Rain* | Wind** | Luminosity | Snow |
|---|---|---|---|---|---|---|---|
| 1778036434 | 13.89° C | 76% | 1019.4 hPa | 0 mm | - | 0 W/m² | - |
| 1778036131 | 14.44° C | 75% | 1019.3 hPa | 0 mm | - | 1 W/m² | - |
| 1778035827 | 14.44° C | 74% | 1019.3 hPa | 0 mm | - | 2 W/m² | - |
| 1778035524 | 14.44° C | 74% | 1019.2 hPa | 0 mm | - | 5 W/m² | - |
| 1778035220 | 14.44° C | 73% | 1019 hPa | 0 mm | - | 7 W/m² | - |
| 1778034916 | 15° C | 72% | 1019 hPa | 0 mm | - | 10 W/m² | - |
| 1778034311 | 15° C | 71% | 1018.9 hPa | 0 mm | - | 16 W/m² | - |
| 1778033101 | 15.56° C | 65% | 1018.8 hPa | 0 mm | - | 27 W/m² | - |
| 1778032495 | 16.11° C | 62% | 1018.8 hPa | 0 mm | - | 32 W/m² | - |
| 1778032192 | 16.11° C | 60% | 1018.6 hPa | 0 mm | - | 33 W/m² | - |
| 1778031889 | 16.67° C | 59% | 1018.6 hPa | 0 mm | - | 35 W/m² | - |
| 1778031585 | 16.67° C | 58% | 1018.7 hPa | 0 mm | - | 39 W/m² | - |
| 1778031283 | 16.67° C | 58% | 1018.6 hPa | 0 mm | - | 107 W/m² | - |
| 1778030979 | 17.22° C | 57% | 1018.6 hPa | 0 mm | - | 142 W/m² | - |
| 1778030676 | 17.78° C | 57% | 1018.6 hPa | 0 mm | - | 46 W/m² | - |
| 1778030373 | 17.78° C | 57% | 1018.7 hPa | 0 mm | - | 149 W/m² | - |
| 1778029767 | 18.33° C | 54% | 1018.6 hPa | 0 mm | - | 208 W/m² | - |
| 1778029466 | 18.89° C | 54% | 1018.7 hPa | 0 mm | - | 105 W/m² | - |
| 1778029161 | 19.44° C | 53% | 1018.6 hPa | 0 mm | - | 66 W/m² | - |
| 1778028860 | 19.44° C | 53% | 1018.6 hPa | 0 mm | - | 273 W/m² | - |
| 1778028253 | 19.44° C | 54% | 1018.6 hPa | 0 mm | - | 306 W/m² | - |
| 1778027645 | 19.44° C | 54% | 1018.5 hPa | 0 mm | - | 318 W/m² | - |
| 1778027342 | 20° C | 52% | 1018.5 hPa | 0 mm | - | 347 W/m² | - |
| 1778027038 | 19.44° C | 55% | 1018.6 hPa | 0 mm | - | 379 W/m² | - |
| 1778026733 | 19.44° C | 57% | 1018.6 hPa | 0 mm | - | 336 W/m² | - |
* Rain latest hour (hover to see other rain measurements)
** Current wind speed in m/s (hover to see current wind gust speed)